createdAt,value
2023-02-13T00:01:49.563Z,101708.84
2023-02-13T00:04:19.069Z,101708.88
2023-02-13T00:06:48.550Z,101708.59
2023-02-13T00:09:18.083Z,101716.00
2023-02-13T00:11:47.648Z,101712.34
2023-02-13T00:14:17.594Z,101716.63
2023-02-13T00:16:47.105Z,101717.28
2023-02-13T00:19:16.950Z,101722.66
2023-02-13T00:21:46.510Z,101722.66
2023-02-13T00:24:16.479Z,101720.56
2023-02-13T00:26:46.045Z,101712.09
2023-02-13T00:29:15.817Z,101719.09
2023-02-13T00:31:44.963Z,101720.75
2023-02-13T00:34:14.503Z,101707.16
2023-02-13T00:36:44.084Z,101720.06
2023-02-13T00:39:13.510Z,101721.03
2023-02-13T00:41:43.003Z,101723.69
2023-02-13T00:44:12.653Z,101720.00
2023-02-13T00:46:42.274Z,101709.13
2023-02-13T00:49:11.841Z,101699.69
2023-02-13T00:51:41.324Z,101699.44
2023-02-13T00:54:10.890Z,101696.66
2023-02-13T00:56:40.501Z,101690.59
2023-02-13T00:59:10.147Z,101687.06
2023-02-13T01:01:39.738Z,101687.97
2023-02-13T01:04:09.516Z,101680.94
2023-02-13T01:06:39.042Z,101686.97
2023-02-13T01:09:08.716Z,101683.50
2023-02-13T01:11:37.525Z,101688.50
2023-02-13T01:14:07.043Z,101684.72
2023-02-13T01:16:36.620Z,101690.44
2023-02-13T01:19:06.193Z,101688.44
2023-02-13T01:21:35.772Z,101689.31
2023-02-13T01:24:07.328Z,101695.69
2023-02-13T01:26:35.165Z,101691.34
2023-02-13T01:29:03.091Z,101695.75
2023-02-13T01:31:32.858Z,101688.94
2023-02-13T01:34:01.830Z,101689.19
2023-02-13T01:36:29.638Z,101696.69
2023-02-13T01:39:00.447Z,101700.00
2023-02-13T01:41:29.208Z,101702.00
2023-02-13T01:44:01.996Z,101694.88
2023-02-13T01:46:42.998Z,101698.44
2023-02-13T01:49:24.303Z,101703.94
2023-02-13T01:51:57.114Z,101699.00
2023-02-13T01:54:31.557Z,101699.69
2023-02-13T01:57:15.047Z,101696.88
2023-02-13T01:59:58.555Z,101693.38
2023-02-13T02:02:31.946Z,101692.06
2023-02-13T02:05:04.395Z,101689.00
2023-02-13T02:07:35.292Z,101691.25
2023-02-13T02:10:12.512Z,101686.38
2023-02-13T02:13:19.384Z,101686.66
2023-02-13T02:15:50.972Z,101686.19
2023-02-13T02:18:25.268Z,101695.06
2023-02-13T02:21:09.750Z,101684.91
2023-02-13T02:24:20.848Z,101685.38
2023-02-13T02:27:41.304Z,101682.16
2023-02-13T02:31:00.126Z,101692.25
2023-02-13T02:34:22.291Z,101691.03
2023-02-13T02:37:32.606Z,101691.78
2023-02-13T02:40:07.926Z,101690.72
2023-02-13T02:42:54.725Z,101690.50
2023-02-13T02:46:10.191Z,101688.53
2023-02-13T02:49:21.998Z,101689.09
2023-02-13T02:52:19.853Z,101684.97
2023-02-13T02:55:08.767Z,101690.41
2023-02-13T02:58:08.080Z,101686.34
2023-02-13T03:01:01.066Z,101685.19
2023-02-13T03:03:50.677Z,101679.66
2023-02-13T03:06:44.974Z,101685.59
2023-02-13T03:09:50.582Z,101685.16
2023-02-13T03:12:47.059Z,101685.97
2023-02-13T03:15:16.676Z,101684.25
2023-02-13T03:18:05.031Z,101693.72
2023-02-13T03:21:06.895Z,101693.31
2023-02-13T03:24:10.804Z,101680.34
2023-02-13T03:27:54.319Z,101684.75
2023-02-13T03:31:01.634Z,101687.03
2023-02-13T03:34:11.159Z,101693.06
2023-02-13T03:37:21.732Z,101686.81
2023-02-13T03:40:18.616Z,101683.97
2023-02-13T03:43:13.798Z,101681.88
2023-02-13T03:45:53.827Z,101679.09
2023-02-13T03:48:57.084Z,101675.09
2023-02-13T03:51:49.018Z,101667.28
2023-02-13T03:55:00.109Z,101672.91
2023-02-13T03:57:52.713Z,101678.28
2023-02-13T04:00:23.698Z,101668.44
2023-02-13T04:03:20.792Z,101677.53
2023-02-13T04:06:01.750Z,101664.97
2023-02-13T04:08:30.185Z,101672.16
2023-02-13T04:11:15.778Z,101671.41
2023-02-13T04:13:58.373Z,101673.63
2023-02-13T04:16:44.391Z,101671.22
2023-02-13T04:19:13.353Z,101668.16
2023-02-13T04:21:41.613Z,101663.81
2023-02-13T04:24:10.738Z,101665.78
2023-02-13T04:26:43.412Z,101662.97
2023-02-13T04:29:12.127Z,101662.97
2023-02-13T04:31:40.887Z,101660.09
2023-02-13T04:34:08.861Z,101659.34
2023-02-13T04:36:37.722Z,101658.13
2023-02-13T04:39:06.449Z,101656.63
2023-02-13T04:41:35.079Z,101648.72
2023-02-13T04:44:04.277Z,101653.41
2023-02-13T04:46:32.157Z,101656.13
2023-02-13T04:49:01.819Z,101653.19
2023-02-13T04:51:29.745Z,101647.94
2023-02-13T04:53:59.272Z,101656.72
2023-02-13T04:56:28.041Z,101651.16
2023-02-13T04:58:57.575Z,101652.34
2023-02-13T05:01:27.216Z,101646.84
2023-02-13T05:03:56.897Z,101650.16
2023-02-13T05:06:26.442Z,101653.75
2023-02-13T05:08:55.949Z,101660.59
2023-02-13T05:11:24.672Z,101656.00
2023-02-13T05:13:52.512Z,101644.03
2023-02-13T05:16:21.289Z,101643.38
2023-02-13T05:18:54.996Z,101627.56
2023-02-13T05:21:42.900Z,101622.13
2023-02-13T05:24:10.823Z,101610.22
2023-02-13T05:26:40.570Z,101603.41
2023-02-13T05:29:20.656Z,101598.56
2023-02-13T05:31:54.723Z,101610.69
2023-02-13T05:34:27.959Z,101600.25
2023-02-13T05:36:57.773Z,101604.00
2023-02-13T05:39:27.390Z,101599.53
2023-02-13T05:41:56.992Z,101600.41
2023-02-13T05:44:26.754Z,101611.81
2023-02-13T05:46:54.622Z,101618.13
2023-02-13T05:49:23.163Z,101624.81
2023-02-13T05:51:52.494Z,101643.66
2023-02-13T05:54:21.491Z,101647.38
2023-02-13T05:56:50.249Z,101646.06
2023-02-13T05:59:18.225Z,101651.22
2023-02-13T06:01:47.782Z,101647.84
2023-02-13T06:04:17.442Z,101652.22
2023-02-13T06:06:47.015Z,101656.53
2023-02-13T06:09:15.699Z,101653.00
2023-02-13T06:11:44.552Z,101647.09
2023-02-13T06:14:14.785Z,101651.72
2023-02-13T06:16:44.413Z,101655.47
2023-02-13T06:19:13.960Z,101662.19
2023-02-13T06:21:43.491Z,101661.13
2023-02-13T06:24:13.078Z,101664.81
2023-02-13T06:26:42.708Z,101664.59
2023-02-13T06:29:13.402Z,101668.41
2023-02-13T06:31:43.933Z,101673.97
2023-02-13T06:34:14.517Z,101693.06
2023-02-13T06:36:44.203Z,101693.78
2023-02-13T06:39:14.022Z,101686.88
2023-02-13T06:41:43.570Z,101695.84
2023-02-13T06:44:13.160Z,101687.88
2023-02-13T06:46:42.731Z,101686.09
2023-02-13T06:49:12.540Z,101690.72
2023-02-13T06:51:42.275Z,101690.06
2023-02-13T06:54:11.897Z,101701.53
2023-02-13T06:56:41.533Z,101707.53
2023-02-13T06:59:11.051Z,101708.09
2023-02-13T07:01:40.634Z,101704.28
2023-02-13T07:04:09.386Z,101695.19
2023-02-13T07:06:38.079Z,101707.72
2023-02-13T07:09:07.743Z,101720.25
2023-02-13T07:11:35.572Z,101721.88
2023-02-13T07:14:07.633Z,101734.88
2023-02-13T07:16:37.110Z,101733.47
2023-02-13T07:19:06.757Z,101735.25
2023-02-13T07:21:38.168Z,101730.75
2023-02-13T07:24:08.802Z,101748.94
2023-02-13T07:26:38.309Z,101749.03
2023-02-13T07:29:12.228Z,101752.31
2023-02-13T07:31:42.142Z,101753.00
2023-02-13T07:34:11.785Z,101752.09
2023-02-13T07:36:40.639Z,101749.47
2023-02-13T07:39:20.786Z,101747.44
2023-02-13T07:41:51.387Z,101743.56
2023-02-13T07:44:20.795Z,101747.09
2023-02-13T07:46:50.376Z,101733.38
2023-02-13T07:49:19.104Z,101736.91
2023-02-13T07:51:47.821Z,101725.28
2023-02-13T07:54:17.326Z,101725.84
2023-02-13T07:56:46.897Z,101728.53
2023-02-13T07:59:16.806Z,101732.88
2023-02-13T08:01:46.266Z,101729.63
2023-02-13T08:04:15.881Z,101733.91
2023-02-13T08:06:45.430Z,101734.91
2023-02-13T08:09:41.005Z,101727.94
2023-02-13T08:12:11.026Z,101727.09
2023-02-13T08:14:38.827Z,101729.75
2023-02-13T08:17:10.027Z,101716.47
2023-02-13T08:19:40.990Z,101714.72
2023-02-13T08:22:11.531Z,101719.16
2023-02-13T08:24:41.201Z,101712.94
2023-02-13T08:27:15.747Z,101715.69
2023-02-13T08:29:45.350Z,101714.75
2023-02-13T08:32:14.950Z,101721.84
2023-02-13T08:34:43.702Z,101720.97
2023-02-13T08:37:12.463Z,101716.50
2023-02-13T08:39:41.446Z,101709.47
2023-02-13T08:42:12.833Z,101712.13
2023-02-13T08:44:44.110Z,101710.28
2023-02-13T08:47:13.620Z,101710.38
2023-02-13T08:49:43.296Z,101706.81
2023-02-13T08:52:12.740Z,101712.13
2023-02-13T08:54:41.434Z,101712.94
2023-02-13T08:57:10.120Z,101708.53
2023-02-13T08:59:38.818Z,101701.50
2023-02-13T09:02:09.126Z,101712.13
2023-02-13T09:04:37.826Z,101707.69
2023-02-13T09:07:06.836Z,101721.88
2023-02-13T09:09:35.474Z,101722.69
2023-02-13T09:12:04.496Z,101713.84
2023-02-13T09:14:34.776Z,101715.47
2023-02-13T09:17:04.466Z,101717.16
2023-02-13T09:19:34.111Z,101714.28
2023-02-13T09:22:03.650Z,101718.16
2023-02-13T09:24:32.355Z,101716.38
2023-02-13T09:27:01.798Z,101725.91
2023-02-13T09:29:33.902Z,101717.22
2023-02-13T09:32:06.032Z,101714.44
2023-02-13T09:34:38.431Z,101723.19
2023-02-13T09:37:07.104Z,101719.44
2023-02-13T09:39:36.578Z,101715.91
2023-02-13T09:42:26.806Z,101714.97
2023-02-13T09:45:06.354Z,101712.19
2023-02-13T09:47:43.977Z,101703.50
2023-02-13T09:50:25.779Z,101697.84
2023-02-13T09:52:57.398Z,101699.63
2023-02-13T09:55:57.254Z,101705.16
2023-02-13T09:58:50.837Z,101700.34
2023-02-13T10:01:34.574Z,101702.81
2023-02-13T10:04:39.798Z,101696.75
2023-02-13T10:07:38.909Z,101695.28
2023-02-13T10:10:52.689Z,101689.50
2023-02-13T10:13:56.021Z,101685.03
2023-02-13T10:16:58.860Z,101682.03
2023-02-13T10:20:18.468Z,101685.03
2023-02-13T10:23:12.894Z,101685.84
2023-02-13T10:26:03.071Z,101682.56
2023-02-13T10:29:26.572Z,101681.94
2023-02-13T10:31:57.116Z,101678.09
2023-02-13T10:34:36.480Z,101674.66
2023-02-13T10:37:19.236Z,101677.88
2023-02-13T10:39:54.807Z,101678.22
2023-02-13T10:42:44.114Z,101666.63
2023-02-13T10:46:15.860Z,101656.47
2023-02-13T10:49:31.100Z,101651.94
2023-02-13T10:52:56.496Z,101657.88
2023-02-13T10:56:05.766Z,101652.09
2023-02-13T10:59:40.164Z,101634.38
2023-02-13T11:02:33.088Z,101641.56
2023-02-13T11:05:16.666Z,101633.50
2023-02-13T11:07:48.306Z,101641.56
2023-02-13T11:10:26.828Z,101640.38
2023-02-13T11:12:57.428Z,101628.78
2023-02-13T11:15:33.075Z,101645.91
2023-02-13T11:18:21.277Z,101631.97
2023-02-13T11:21:14.071Z,101630.03
2023-02-13T11:23:53.838Z,101628.22
2023-02-13T11:26:33.369Z,101624.81
2023-02-13T11:29:36.449Z,101619.84
2023-02-13T11:32:32.867Z,101613.50
2023-02-13T11:35:36.483Z,101609.16
2023-02-13T11:38:25.313Z,101603.69
2023-02-13T11:41:15.571Z,101592.81
2023-02-13T11:43:53.964Z,101587.09
2023-02-13T11:46:51.130Z,101580.88
2023-02-13T11:49:28.079Z,101587.09
2023-02-13T11:52:05.290Z,101576.50
2023-02-13T11:54:45.442Z,101583.38
2023-02-13T11:57:37.820Z,101580.66
2023-02-13T12:00:37.932Z,101565.34
2023-02-13T12:03:33.081Z,101573.22
2023-02-13T12:06:15.593Z,101566.81
2023-02-13T12:08:49.666Z,101566.19
2023-02-13T12:11:48.698Z,101567.06
2023-02-13T12:14:38.540Z,101565.72
2023-02-13T12:17:32.328Z,101564.16
2023-02-13T12:20:02.505Z,101556.06
2023-02-13T12:23:22.538Z,101555.84
2023-02-13T12:26:22.207Z,101554.03
2023-02-13T12:29:24.044Z,101547.97
2023-02-13T12:32:28.898Z,101544.56
2023-02-13T12:36:16.424Z,101536.69
2023-02-13T12:39:15.990Z,101530.63
2023-02-13T12:42:32.803Z,101526.41
2023-02-13T12:45:38.870Z,101520.06
2023-02-13T12:48:23.639Z,101521.69
2023-02-13T12:51:25.495Z,101517.69
2023-02-13T12:55:10.981Z,101515.16
2023-02-13T12:58:20.063Z,101513.75
2023-02-13T13:01:50.719Z,101509.41
2023-02-13T13:05:17.480Z,101497.66
2023-02-13T13:08:26.529Z,101499.22
2023-02-13T13:11:11.333Z,101494.13
2023-02-13T13:14:19.270Z,101499.13
2023-02-13T13:17:31.330Z,101494.28
2023-02-13T13:21:00.605Z,101481.00
2023-02-13T13:24:07.112Z,101482.75
2023-02-13T13:26:44.794Z,101476.91
2023-02-13T13:29:43.328Z,101483.91
2023-02-13T13:32:21.219Z,101478.88
2023-02-13T13:34:51.028Z,101475.16
2023-02-13T13:38:02.839Z,101471.94
2023-02-13T13:41:04.558Z,101475.66
2023-02-13T13:43:57.292Z,101472.97
2023-02-13T13:47:17.347Z,101479.19
2023-02-13T13:49:56.902Z,101474.56
2023-02-13T13:52:37.595Z,101473.59
2023-02-13T13:55:07.087Z,101474.72
2023-02-13T13:57:43.182Z,101468.69
2023-02-13T14:00:14.316Z,101468.13
2023-02-13T14:03:35.800Z,101464.19
2023-02-13T14:06:09.634Z,101457.88
2023-02-13T14:08:41.034Z,101456.41
2023-02-13T14:11:46.784Z,101459.41
2023-02-13T14:14:28.778Z,101456.44
2023-02-13T14:17:14.628Z,101471.16
2023-02-13T14:19:53.577Z,101461.19
2023-02-13T14:22:37.835Z,101469.34
2023-02-13T14:25:26.123Z,101473.25
2023-02-13T14:28:04.890Z,101472.03
2023-02-13T14:30:39.874Z,101476.13
2023-02-13T14:33:29.669Z,101464.59
2023-02-13T14:36:27.361Z,101466.66
2023-02-13T14:39:04.139Z,101466.56
2023-02-13T14:41:55.900Z,101458.44
2023-02-13T14:44:50.062Z,101463.25
2023-02-13T14:48:05.732Z,101460.34
2023-02-13T14:50:54.607Z,101458.06
2023-02-13T14:53:53.129Z,101464.53
2023-02-13T14:56:24.258Z,101457.59
2023-02-13T14:59:17.853Z,101462.72
2023-02-13T15:01:58.183Z,101452.31
2023-02-13T15:04:42.448Z,101455.22
2023-02-13T15:07:34.595Z,101456.06
2023-02-13T15:10:47.260Z,101457.41
2023-02-13T15:13:23.509Z,101461.88
2023-02-13T15:16:08.164Z,101466.47
2023-02-13T15:18:52.952Z,101473.41
2023-02-13T15:21:33.342Z,101469.81
2023-02-13T15:24:03.833Z,101462.81
2023-02-13T15:26:33.330Z,101454.44
2023-02-13T15:29:27.718Z,101459.88
2023-02-13T15:32:00.385Z,101457.38
2023-02-13T15:34:36.933Z,101463.53
2023-02-13T15:37:06.946Z,101454.44
2023-02-13T15:39:36.490Z,101444.97
2023-02-13T15:42:06.112Z,101443.38
2023-02-13T15:44:39.560Z,101451.25
2023-02-13T15:47:23.460Z,101440.38
2023-02-13T15:49:53.507Z,101445.09
2023-02-13T15:52:37.620Z,101448.59
2023-02-13T15:55:28.419Z,101447.81
2023-02-13T15:58:01.251Z,101453.25
2023-02-13T16:00:37.760Z,101454.28
2023-02-13T16:03:16.087Z,101449.41
2023-02-13T16:05:47.989Z,101451.78
2023-02-13T16:08:43.997Z,101456.63
2023-02-13T16:11:41.595Z,101451.59
2023-02-13T16:14:21.838Z,101454.44
2023-02-13T16:16:59.427Z,101467.03
2023-02-13T16:19:57.143Z,101458.53
2023-02-13T16:22:43.143Z,101454.16
2023-02-13T16:25:33.362Z,101451.34
2023-02-13T16:28:18.991Z,101440.88
2023-02-13T16:31:01.212Z,101449.63
2023-02-13T16:33:41.617Z,101446.16
2023-02-13T16:36:11.088Z,101445.41
2023-02-13T16:38:43.078Z,101449.75
2023-02-13T16:41:25.931Z,101440.88
2023-02-13T16:44:05.990Z,101430.47
2023-02-13T16:46:50.111Z,101439.50
2023-02-13T16:49:26.259Z,101431.97
2023-02-13T16:52:23.419Z,101432.00
2023-02-13T16:54:57.254Z,101424.84
2023-02-13T16:57:34.229Z,101430.28
2023-02-13T17:00:24.479Z,101429.34
2023-02-13T17:02:53.360Z,101422.25
2023-02-13T17:05:28.508Z,101433.00
2023-02-13T17:07:58.899Z,101433.19
2023-02-13T17:10:40.134Z,101426.22
2023-02-13T17:13:11.582Z,101423.59
2023-02-13T17:15:45.536Z,101436.00
2023-02-13T17:18:16.986Z,101428.09
2023-02-13T17:20:45.950Z,101435.19
2023-02-13T17:23:24.300Z,101429.00
2023-02-13T17:25:54.971Z,101430.75
2023-02-13T17:28:30.460Z,101425.44
2023-02-13T17:31:01.741Z,101412.19
2023-02-13T17:33:35.038Z,101421.91
2023-02-13T17:36:06.064Z,101421.88
2023-02-13T17:38:35.778Z,101421.00
2023-02-13T17:41:13.489Z,101415.69
2023-02-13T17:43:42.973Z,101418.44
2023-02-13T17:46:15.426Z,101413.16
2023-02-13T17:48:45.087Z,101402.56
2023-02-13T17:51:15.570Z,101408.75
2023-02-13T17:53:43.367Z,101412.28
2023-02-13T17:56:12.994Z,101410.56
2023-02-13T17:58:42.623Z,101402.59
2023-02-13T18:01:12.795Z,101392.00
2023-02-13T18:03:42.480Z,101386.66
2023-02-13T18:06:14.678Z,101388.41
2023-02-13T18:08:42.777Z,101391.09
2023-02-13T18:11:12.986Z,101376.97
2023-02-13T18:13:46.066Z,101375.16
2023-02-13T18:16:17.253Z,101377.81
2023-02-13T18:18:45.119Z,101378.69
2023-02-13T18:21:15.689Z,101375.13
2023-02-13T18:23:46.232Z,101371.69
2023-02-13T18:26:15.857Z,101365.50
2023-02-13T18:28:45.540Z,101368.16
2023-02-13T18:31:16.855Z,101367.28
2023-02-13T18:33:47.671Z,101359.34
2023-02-13T18:36:17.489Z,101360.22
2023-02-13T18:38:47.228Z,101356.69
2023-02-13T18:41:17.421Z,101357.56
2023-02-13T18:44:32.788Z,101361.97
2023-02-13T18:47:02.769Z,101360.22
2023-02-13T18:49:32.925Z,101363.75
2023-02-13T18:52:03.954Z,101351.38
2023-02-13T18:54:33.829Z,101348.72
2023-02-13T18:57:03.650Z,101343.44
2023-02-13T18:59:33.619Z,101346.06
2023-02-13T19:02:04.083Z,101344.31
2023-02-13T19:04:36.038Z,101340.78
2023-02-13T19:07:05.690Z,101334.59
2023-02-13T19:09:35.709Z,101339.88
2023-02-13T19:12:07.294Z,101338.13
2023-02-13T19:14:39.485Z,101350.50
2023-02-13T19:17:10.721Z,101351.34
2023-02-13T19:19:40.424Z,101356.63
2023-02-13T19:22:10.103Z,101353.97
2023-02-13T19:24:41.728Z,101359.28
2023-02-13T19:27:12.222Z,101352.22
2023-02-13T19:29:41.875Z,101354.88
2023-02-13T19:32:12.061Z,101343.41
2023-02-13T19:34:42.426Z,101346.09
2023-02-13T19:37:15.130Z,101346.97
2023-02-13T19:39:44.792Z,101343.41
2023-02-13T19:42:12.672Z,101347.81
2023-02-13T19:44:43.135Z,101343.41
2023-02-13T19:47:10.968Z,101344.25
2023-02-13T19:49:41.506Z,101340.69
2023-02-13T19:52:09.484Z,101346.00
2023-02-13T19:54:40.277Z,101336.25
2023-02-13T19:57:10.805Z,101328.31
2023-02-13T19:59:41.429Z,101326.56
2023-02-13T20:02:17.295Z,101317.75
2023-02-13T20:04:47.520Z,101315.09
2023-02-13T20:07:17.152Z,101317.78
2023-02-13T20:09:46.905Z,101324.00
2023-02-13T20:12:16.657Z,101310.75
2023-02-13T20:14:46.316Z,101306.34
2023-02-13T20:17:15.959Z,101307.22
2023-02-13T20:19:47.712Z,101305.47
2023-02-13T20:22:18.507Z,101300.19
2023-02-13T20:24:49.094Z,101302.81
2023-02-13T20:27:18.943Z,101303.69
2023-02-13T20:29:48.600Z,101311.66
2023-02-13T20:32:18.372Z,101312.53
2023-02-13T20:34:59.454Z,101309.88
2023-02-13T20:37:29.567Z,101308.13
2023-02-13T20:39:59.504Z,101310.78
2023-02-13T20:42:29.194Z,101317.84
2023-02-13T20:44:58.966Z,101316.94
2023-02-13T20:47:29.811Z,101305.47
2023-02-13T20:49:59.477Z,101301.97
2023-02-13T20:52:29.119Z,101317.84
2023-02-13T20:55:00.859Z,101319.59
2023-02-13T20:57:35.175Z,101306.38
2023-02-13T21:00:08.956Z,101304.59
2023-02-13T21:02:38.685Z,101306.34
2023-02-13T21:05:08.853Z,101301.06
2023-02-13T21:07:38.490Z,101307.22
2023-02-13T21:10:08.817Z,101306.34
2023-02-13T21:12:38.426Z,101303.72
2023-02-13T21:15:08.830Z,101306.38
2023-02-13T21:17:38.482Z,101305.47
2023-02-13T21:20:09.182Z,101309.84
2023-02-13T21:22:38.864Z,101301.06
2023-02-13T21:25:08.690Z,101305.47
2023-02-13T21:27:38.312Z,101300.16
2023-02-13T21:30:10.609Z,101315.16
2023-02-13T21:32:40.299Z,101313.38
2023-02-13T21:35:08.752Z,101327.44
2023-02-13T21:37:38.713Z,101314.94
2023-02-13T21:40:09.392Z,101328.13
2023-02-13T21:42:39.009Z,101331.47
2023-02-13T21:45:09.329Z,101341.19
2023-02-13T21:47:39.240Z,101343.00
2023-02-13T21:50:09.764Z,101345.66
2023-02-13T21:52:40.222Z,101343.94
2023-02-13T21:55:09.953Z,101346.47
2023-02-13T21:57:40.133Z,101334.88
2023-02-13T22:00:10.793Z,101345.41
2023-02-13T22:02:40.801Z,101332.16
2023-02-13T22:05:10.452Z,101328.56
2023-02-13T22:07:59.961Z,101329.63
2023-02-13T22:10:29.598Z,101325.91
2023-02-13T22:12:59.255Z,101332.09
2023-02-13T22:15:28.959Z,101326.66
2023-02-13T22:17:59.134Z,101331.88
2023-02-13T22:20:28.795Z,101328.31
2023-02-13T22:22:58.470Z,101323.16
2023-02-13T22:25:28.148Z,101330.31
2023-02-13T22:27:57.850Z,101316.34
2023-02-13T22:30:27.661Z,101317.94
2023-02-13T22:32:59.210Z,101309.22
2023-02-13T22:35:28.913Z,101314.50
2023-02-13T22:37:59.472Z,101320.63
2023-02-13T22:40:30.040Z,101324.97
2023-02-13T22:43:00.703Z,101311.69
2023-02-13T22:45:34.127Z,101310.81
2023-02-13T22:48:06.519Z,101308.28
2023-02-13T22:50:36.480Z,101317.81
2023-02-13T22:53:06.985Z,101310.03
2023-02-13T22:55:37.590Z,101313.53
2023-02-13T22:58:08.133Z,101316.22
2023-02-13T23:00:39.570Z,101316.03
2023-02-13T23:03:10.088Z,101317.88
2023-02-13T23:05:40.727Z,101315.09
2023-02-13T23:08:11.085Z,101315.34
2023-02-13T23:10:42.613Z,101313.50
2023-02-13T23:13:12.363Z,101312.28
2023-02-13T23:15:42.436Z,101321.72
2023-02-13T23:18:14.868Z,101321.78
2023-02-13T23:20:45.135Z,101308.66
2023-02-13T23:23:14.814Z,101302.38
2023-02-13T23:25:44.561Z,101292.47
2023-02-13T23:28:14.206Z,101286.06
2023-02-13T23:30:44.787Z,101292.13
2023-02-13T23:33:14.577Z,101286.25
2023-02-13T23:35:45.236Z,101281.00
2023-02-13T23:38:15.730Z,101289.19
2023-02-13T23:40:45.443Z,101284.88
2023-02-13T23:43:15.120Z,101292.75
2023-02-13T23:45:44.768Z,101283.31
2023-02-13T23:48:14.486Z,101285.16
2023-02-13T23:50:44.199Z,101283.38
2023-02-13T23:53:13.872Z,101286.97
2023-02-13T23:55:43.428Z,101280.63
2023-02-13T23:58:13.011Z,101281.75
